Etusivu
METAR-TAF:

METAR-TAF

Lentoasemat :

Kiel, Saksa

Leveyspiiri: 54-23N, Pituuspiiri: 010-10E, korkeus merenpinnasta: 31 m

Tämänhetkinen sää

Tämä raportti tehtiin 39 minuuttia sitten, kello 17.20 UTC
Tuuli 1 kn idästä
Lämpötila 4°C
Kosteus 100%
Ilmanpaine 1022 hPa
Näkyvyys: 0400 m

METAR: EDHK 271720Z AUTO 08001KT 0400 R08/0600N // NCD 04/04 Q1022

Aika: 18:59 (17:59 UTC)

Sääennuste

Tämä raportti tehtiin 3 tuntia ja 59 minuuttia sitten, kello 14.00 UTC
Ennuste voimassa 27. päivästä klo 15 UTC - 27. päivään klo 19 UTC
Tuuli 3 kn idästä
Näkyvyys 10 km tai enemmän
ei pilviä alle 1500 m:ssä eikä cumulonimbus-pilviä
Ajoittain
27. päivästä klo 16 UTC - 27. päivään klo 19 UTC
Näkyvyys: 2000 m
Hajonneita pilviä 500 ft:n korkeudessa
utua

TAF: EDHK 271400Z 2715/2719 08003KT CAVOK TEMPO 2716/2719 2000 BR BKN005

Säähavainnot ja -ennusteet yli 4000 lentoasemalta (METAR- ja TAF-raportit).

Käytössä olevat sääasemat on merkitty karttaan keltaisilla ja punaisilla pisteillä.

Aseta hiiri pisteen päälle nähdäksesi sääaseman nimen.

Klikkaa sitten nähdäksesi säähavainnot ja -ennusteet.

Kartan vaihtaminen: klikkaa mustalla rastilla varustettuja vihreitä pisteitä, niin voit zoomata sisään; viivalla varustettua vihreää pistettä, niin voit zoomata ulos tai vihreitä nuolia, niin pääset viereisille kartoille.


METAR-TAF: